sensor_id;sensor_type;location;lat;lon;timestamp;temperature;humidity
48515;DHT22;34309;47.260;2.796;2023-06-10T00:00:46;28.70;25.70
48515;DHT22;34309;47.260;2.796;2023-06-10T00:03:20;28.70;25.80
48515;DHT22;34309;47.260;2.796;2023-06-10T00:05:55;28.60;25.70
48515;DHT22;34309;47.260;2.796;2023-06-10T00:08:29;28.70;25.90
48515;DHT22;34309;47.260;2.796;2023-06-10T00:11:03;28.60;25.70
48515;DHT22;34309;47.260;2.796;2023-06-10T00:13:38;28.60;25.90
48515;DHT22;34309;47.260;2.796;2023-06-10T00:16:12;28.60;25.80
48515;DHT22;34309;47.260;2.796;2023-06-10T00:18:46;28.60;25.80
48515;DHT22;34309;47.260;2.796;2023-06-10T00:21:23;28.60;25.80
48515;DHT22;34309;47.260;2.796;2023-06-10T00:23:58;28.60;25.90
48515;DHT22;34309;47.260;2.796;2023-06-10T00:26:35;28.60;26.00
48515;DHT22;34309;47.260;2.796;2023-06-10T00:29:10;28.70;25.90
48515;DHT22;34309;47.260;2.796;2023-06-10T00:31:45;28.60;25.80
48515;DHT22;34309;47.260;2.796;2023-06-10T00:34:19;28.60;25.80
48515;DHT22;34309;47.260;2.796;2023-06-10T00:36:48;28.60;25.90
48515;DHT22;34309;47.260;2.796;2023-06-10T00:39:22;28.60;25.90
48515;DHT22;34309;47.260;2.796;2023-06-10T00:41:56;28.60;26.00
48515;DHT22;34309;47.260;2.796;2023-06-10T00:44:31;28.60;25.90
48515;DHT22;34309;47.260;2.796;2023-06-10T00:47:06;28.60;25.90
48515;DHT22;34309;47.260;2.796;2023-06-10T00:49:40;28.60;25.90
48515;DHT22;34309;47.260;2.796;2023-06-10T00:52:15;28.60;26.00
48515;DHT22;34309;47.260;2.796;2023-06-10T00:54:50;28.60;26.00
48515;DHT22;34309;47.260;2.796;2023-06-10T00:57:24;28.60;26.10
48515;DHT22;34309;47.260;2.796;2023-06-10T01:00:00;28.60;26.10
48515;DHT22;34309;47.260;2.796;2023-06-10T01:02:34;28.60;26.10
48515;DHT22;34309;47.260;2.796;2023-06-10T01:05:08;28.70;26.10
48515;DHT22;34309;47.260;2.796;2023-06-10T01:07:50;28.60;26.20
48515;DHT22;34309;47.260;2.796;2023-06-10T01:10:31;28.60;26.10
48515;DHT22;34309;47.260;2.796;2023-06-10T01:13:09;28.60;26.20
48515;DHT22;34309;47.260;2.796;2023-06-10T01:15:45;28.60;26.10
48515;DHT22;34309;47.260;2.796;2023-06-10T01:18:19;28.60;26.20
48515;DHT22;34309;47.260;2.796;2023-06-10T01:20:53;28.60;26.30
48515;DHT22;34309;47.260;2.796;2023-06-10T01:23:30;28.60;26.30
48515;DHT22;34309;47.260;2.796;2023-06-10T01:26:09;28.60;26.30
48515;DHT22;34309;47.260;2.796;2023-06-10T01:28:49;28.60;26.30
48515;DHT22;34309;47.260;2.796;2023-06-10T01:31:33;28.60;26.30
48515;DHT22;34309;47.260;2.796;2023-06-10T01:34:12;28.60;26.30
48515;DHT22;34309;47.260;2.796;2023-06-10T01:36:48;28.60;26.40
48515;DHT22;34309;47.260;2.796;2023-06-10T01:39:24;28.50;26.40
48515;DHT22;34309;47.260;2.796;2023-06-10T01:41:58;28.60;26.20
48515;DHT22;34309;47.260;2.796;2023-06-10T01:44:34;28.60;26.40
48515;DHT22;34309;47.260;2.796;2023-06-10T01:47:08;28.60;26.30
48515;DHT22;34309;47.260;2.796;2023-06-10T01:49:42;28.50;26.40
48515;DHT22;34309;47.260;2.796;2023-06-10T01:52:16;28.50;26.40
48515;DHT22;34309;47.260;2.796;2023-06-10T01:54:51;28.50;26.30
48515;DHT22;34309;47.260;2.796;2023-06-10T01:57:25;28.60;26.40
48515;DHT22;34309;47.260;2.796;2023-06-10T01:59:58;28.50;26.30
48515;DHT22;34309;47.260;2.796;2023-06-10T02:02:32;28.50;26.40
48515;DHT22;34309;47.260;2.796;2023-06-10T02:05:07;28.50;26.50
48515;DHT22;34309;47.260;2.796;2023-06-10T02:07:40;28.50;26.30
48515;DHT22;34309;47.260;2.796;2023-06-10T02:10:16;28.50;26.40
48515;DHT22;34309;47.260;2.796;2023-06-10T02:12:49;28.50;26.40
48515;DHT22;34309;47.260;2.796;2023-06-10T02:15:23;28.50;26.30
48515;DHT22;34309;47.260;2.796;2023-06-10T02:17:53;28.50;26.40
48515;DHT22;34309;47.260;2.796;2023-06-10T02:20:28;28.50;26.30
48515;DHT22;34309;47.260;2.796;2023-06-10T02:23:02;28.50;26.20
48515;DHT22;34309;47.260;2.796;2023-06-10T02:25:37;28.50;26.30
48515;DHT22;34309;47.260;2.796;2023-06-10T02:28:11;28.50;26.40
48515;DHT22;34309;47.260;2.796;2023-06-10T02:30:44;28.50;26.40
48515;DHT22;34309;47.260;2.796;2023-06-10T02:33:18;28.50;26.40
48515;DHT22;34309;47.260;2.796;2023-06-10T02:35:52;28.50;26.40
48515;DHT22;34309;47.260;2.796;2023-06-10T02:38:26;28.50;27.10
48515;DHT22;34309;47.260;2.796;2023-06-10T02:41:01;28.50;26.50
48515;DHT22;34309;47.260;2.796;2023-06-10T02:43:35;28.50;26.60
48515;DHT22;34309;47.260;2.796;2023-06-10T02:46:09;28.50;26.50
48515;DHT22;34309;47.260;2.796;2023-06-10T02:48:43;28.50;26.50
48515;DHT22;34309;47.260;2.796;2023-06-10T02:51:17;28.50;26.60
48515;DHT22;34309;47.260;2.796;2023-06-10T02:53:50;28.50;26.50
48515;DHT22;34309;47.260;2.796;2023-06-10T02:56:26;28.50;26.50
48515;DHT22;34309;47.260;2.796;2023-06-10T02:58:59;28.50;26.60
48515;DHT22;34309;47.260;2.796;2023-06-10T03:01:33;28.50;26.60
48515;DHT22;34309;47.260;2.796;2023-06-10T03:04:09;28.50;26.60
48515;DHT22;34309;47.260;2.796;2023-06-10T03:06:45;28.50;26.50
48515;DHT22;34309;47.260;2.796;2023-06-10T03:09:20;28.50;26.60
48515;DHT22;34309;47.260;2.796;2023-06-10T03:11:55;28.50;26.50
48515;DHT22;34309;47.260;2.796;2023-06-10T03:14:29;28.50;26.60
48515;DHT22;34309;47.260;2.796;2023-06-10T03:17:02;28.50;26.60
48515;DHT22;34309;47.260;2.796;2023-06-10T03:19:31;28.50;26.60
48515;DHT22;34309;47.260;2.796;2023-06-10T03:22:08;28.50;26.60
48515;DHT22;34309;47.260;2.796;2023-06-10T03:24:42;28.50;26.70
48515;DHT22;34309;47.260;2.796;2023-06-10T03:27:20;28.50;26.60
48515;DHT22;34309;47.260;2.796;2023-06-10T03:29:53;28.50;26.70
48515;DHT22;34309;47.260;2.796;2023-06-10T03:32:27;28.50;26.70
48515;DHT22;34309;47.260;2.796;2023-06-10T03:35:01;28.50;26.70
48515;DHT22;34309;47.260;2.796;2023-06-10T03:37:35;28.50;27.30
48515;DHT22;34309;47.260;2.796;2023-06-10T03:40:09;28.50;26.70
48515;DHT22;34309;47.260;2.796;2023-06-10T03:42:44;28.50;26.50
48515;DHT22;34309;47.260;2.796;2023-06-10T03:45:18;28.50;26.60
48515;DHT22;34309;47.260;2.796;2023-06-10T03:47:52;28.50;26.70
48515;DHT22;34309;47.260;2.796;2023-06-10T03:50:26;28.40;26.70
48515;DHT22;34309;47.260;2.796;2023-06-10T03:53:00;28.40;26.70
48515;DHT22;34309;47.260;2.796;2023-06-10T03:55:34;28.50;26.70
48515;DHT22;34309;47.260;2.796;2023-06-10T03:58:09;28.40;26.50
48515;DHT22;34309;47.260;2.796;2023-06-10T04:00:45;28.40;26.70
48515;DHT22;34309;47.260;2.796;2023-06-10T04:03:19;28.40;26.60
48515;DHT22;34309;47.260;2.796;2023-06-10T04:05:53;28.40;26.60
48515;DHT22;34309;47.260;2.796;2023-06-10T04:08:27;28.40;26.60
48515;DHT22;34309;47.260;2.796;2023-06-10T04:11:01;28.40;26.60
48515;DHT22;34309;47.260;2.796;2023-06-10T04:13:36;28.40;26.70
48515;DHT22;34309;47.260;2.796;2023-06-10T04:16:10;28.40;26.60
48515;DHT22;34309;47.260;2.796;2023-06-10T04:18:43;28.40;26.70
48515;DHT22;34309;47.260;2.796;2023-06-10T04:21:17;28.40;26.60
48515;DHT22;34309;47.260;2.796;2023-06-10T04:23:51;28.40;26.70
48515;DHT22;34309;47.260;2.796;2023-06-10T04:26:25;28.40;26.80
48515;DHT22;34309;47.260;2.796;2023-06-10T04:29:00;28.40;26.80
48515;DHT22;34309;47.260;2.796;2023-06-10T04:31:34;28.40;26.70
48515;DHT22;34309;47.260;2.796;2023-06-10T04:34:08;28.40;26.70
48515;DHT22;34309;47.260;2.796;2023-06-10T04:36:41;28.40;26.70
48515;DHT22;34309;47.260;2.796;2023-06-10T04:39:16;28.40;26.80
48515;DHT22;34309;47.260;2.796;2023-06-10T04:41:50;28.40;26.70
48515;DHT22;34309;47.260;2.796;2023-06-10T04:44:25;28.40;26.70
48515;DHT22;34309;47.260;2.796;2023-06-10T04:46:59;28.40;26.80
48515;DHT22;34309;47.260;2.796;2023-06-10T04:49:33;28.40;26.80
48515;DHT22;34309;47.260;2.796;2023-06-10T04:52:10;28.40;26.80
48515;DHT22;34309;47.260;2.796;2023-06-10T04:54:46;28.40;26.90
48515;DHT22;34309;47.260;2.796;2023-06-10T04:57:20;28.40;26.80
48515;DHT22;34309;47.260;2.796;2023-06-10T04:59:56;28.40;26.80
48515;DHT22;34309;47.260;2.796;2023-06-10T05:02:29;28.40;27.00
48515;DHT22;34309;47.260;2.796;2023-06-10T05:05:03;28.30;26.90
48515;DHT22;34309;47.260;2.796;2023-06-10T05:07:37;28.40;27.50
48515;DHT22;34309;47.260;2.796;2023-06-10T05:10:10;28.40;26.90
48515;DHT22;34309;47.260;2.796;2023-06-10T05:12:45;28.40;27.00
48515;DHT22;34309;47.260;2.796;2023-06-10T05:15:21;28.40;27.00
48515;DHT22;34309;47.260;2.796;2023-06-10T05:17:56;28.30;27.00
48515;DHT22;34309;47.260;2.796;2023-06-10T05:20:30;28.40;26.90
48515;DHT22;34309;47.260;2.796;2023-06-10T05:23:04;28.40;27.00
48515;DHT22;34309;47.260;2.796;2023-06-10T05:25:39;28.40;27.00
48515;DHT22;34309;47.260;2.796;2023-06-10T05:28:13;28.40;27.00
48515;DHT22;34309;47.260;2.796;2023-06-10T05:30:48;28.40;27.00
48515;DHT22;34309;47.260;2.796;2023-06-10T05:33:22;28.40;26.90
48515;DHT22;34309;47.260;2.796;2023-06-10T05:35:56;28.40;27.00
48515;DHT22;34309;47.260;2.796;2023-06-10T05:38:29;28.40;27.10
48515;DHT22;34309;47.260;2.796;2023-06-10T05:41:03;28.40;26.80
48515;DHT22;34309;47.260;2.796;2023-06-10T05:43:37;28.40;27.00
48515;DHT22;34309;47.260;2.796;2023-06-10T05:46:13;28.40;27.00
48515;DHT22;34309;47.260;2.796;2023-06-10T05:48:47;28.40;27.00
48515;DHT22;34309;47.260;2.796;2023-06-10T05:51:21;28.30;27.00
48515;DHT22;34309;47.260;2.796;2023-06-10T05:53:55;28.30;27.10
48515;DHT22;34309;47.260;2.796;2023-06-10T05:56:29;28.30;26.90
48515;DHT22;34309;47.260;2.796;2023-06-10T05:59:03;28.30;27.00
48515;DHT22;34309;47.260;2.796;2023-06-10T06:01:38;28.30;27.00
48515;DHT22;34309;47.260;2.796;2023-06-10T06:04:12;28.40;27.00
48515;DHT22;34309;47.260;2.796;2023-06-10T06:06:45;28.40;27.00
48515;DHT22;34309;47.260;2.796;2023-06-10T06:09:19;28.30;27.10
48515;DHT22;34309;47.260;2.796;2023-06-10T06:11:53;28.30;27.00
48515;DHT22;34309;47.260;2.796;2023-06-10T06:14:30;28.30;27.00
48515;DHT22;34309;47.260;2.796;2023-06-10T06:17:06;28.30;27.00
48515;DHT22;34309;47.260;2.796;2023-06-10T06:19:40;28.30;27.00
48515;DHT22;34309;47.260;2.796;2023-06-10T06:22:14;28.30;27.00
48515;DHT22;34309;47.260;2.796;2023-06-10T06:24:52;28.30;27.00
48515;DHT22;34309;47.260;2.796;2023-06-10T06:27:26;28.30;27.10
48515;DHT22;34309;47.260;2.796;2023-06-10T06:29:59;28.30;27.10
48515;DHT22;34309;47.260;2.796;2023-06-10T06:32:29;28.30;27.10
48515;DHT22;34309;47.260;2.796;2023-06-10T06:35:04;28.30;27.10
48515;DHT22;34309;47.260;2.796;2023-06-10T06:37:39;28.30;27.10
48515;DHT22;34309;47.260;2.796;2023-06-10T06:40:13;28.30;27.10
48515;DHT22;34309;47.260;2.796;2023-06-10T06:42:47;28.30;27.10
48515;DHT22;34309;47.260;2.796;2023-06-10T06:45:21;28.30;27.20
48515;DHT22;34309;47.260;2.796;2023-06-10T06:47:56;28.30;27.10
48515;DHT22;34309;47.260;2.796;2023-06-10T06:50:30;28.30;27.10
48515;DHT22;34309;47.260;2.796;2023-06-10T06:53:04;28.30;27.10
48515;DHT22;34309;47.260;2.796;2023-06-10T06:55:37;28.30;27.20
48515;DHT22;34309;47.260;2.796;2023-06-10T06:58:11;28.30;27.30
48515;DHT22;34309;47.260;2.796;2023-06-10T07:00:45;28.30;27.20
48515;DHT22;34309;47.260;2.796;2023-06-10T07:03:20;28.30;27.30
48515;DHT22;34309;47.260;2.796;2023-06-10T07:05:54;28.30;27.10
48515;DHT22;34309;47.260;2.796;2023-06-10T07:08:27;28.30;27.20
48515;DHT22;34309;47.260;2.796;2023-06-10T07:11:01;28.30;27.10
48515;DHT22;34309;47.260;2.796;2023-06-10T07:13:34;28.30;27.20
48515;DHT22;34309;47.260;2.796;2023-06-10T07:16:08;28.30;27.20
48515;DHT22;34309;47.260;2.796;2023-06-10T07:18:46;28.30;27.30
48515;DHT22;34309;47.260;2.796;2023-06-10T07:21:19;28.20;27.20
48515;DHT22;34309;47.260;2.796;2023-06-10T07:23:54;28.20;27.30
48515;DHT22;34309;47.260;2.796;2023-06-10T07:26:28;28.20;27.30
48515;DHT22;34309;47.260;2.796;2023-06-10T07:29:01;28.20;27.40
48515;DHT22;34309;47.260;2.796;2023-06-10T07:31:35;28.20;27.30
48515;DHT22;34309;47.260;2.796;2023-06-10T07:34:10;28.20;27.20
48515;DHT22;34309;47.260;2.796;2023-06-10T07:36:44;28.20;27.20
48515;DHT22;34309;47.260;2.796;2023-06-10T07:39:17;28.20;27.30
48515;DHT22;34309;47.260;2.796;2023-06-10T07:41:54;28.20;27.30
48515;DHT22;34309;47.260;2.796;2023-06-10T07:44:24;28.20;27.30
48515;DHT22;34309;47.260;2.796;2023-06-10T07:46:58;28.20;27.30
48515;DHT22;34309;47.260;2.796;2023-06-10T07:49:33;28.20;27.30
48515;DHT22;34309;47.260;2.796;2023-06-10T07:52:07;28.20;27.30
48515;DHT22;34309;47.260;2.796;2023-06-10T07:54:41;28.20;27.80
48515;DHT22;34309;47.260;2.796;2023-06-10T07:57:15;28.20;27.40
48515;DHT22;34309;47.260;2.796;2023-06-10T07:59:49;28.20;27.30
48515;DHT22;34309;47.260;2.796;2023-06-10T08:02:23;28.20;27.30
48515;DHT22;34309;47.260;2.796;2023-06-10T08:04:58;28.20;27.40
48515;DHT22;34309;47.260;2.796;2023-06-10T08:07:32;28.20;27.30
48515;DHT22;34309;47.260;2.796;2023-06-10T08:10:06;28.20;27.50
48515;DHT22;34309;47.260;2.796;2023-06-10T08:12:40;28.20;27.20
48515;DHT22;34309;47.260;2.796;2023-06-10T08:15:13;28.20;27.40
48515;DHT22;34309;47.260;2.796;2023-06-10T08:17:47;28.20;27.40
48515;DHT22;34309;47.260;2.796;2023-06-10T08:20:23;28.20;27.40
48515;DHT22;34309;47.260;2.796;2023-06-10T08:22:56;28.20;27.40
48515;DHT22;34309;47.260;2.796;2023-06-10T08:25:30;28.20;27.40
48515;DHT22;34309;47.260;2.796;2023-06-10T08:28:04;28.20;27.50
48515;DHT22;34309;47.260;2.796;2023-06-10T08:30:38;28.20;27.40
48515;DHT22;34309;47.260;2.796;2023-06-10T08:33:11;28.20;27.50
48515;DHT22;34309;47.260;2.796;2023-06-10T08:35:47;28.20;27.50
48515;DHT22;34309;47.260;2.796;2023-06-10T08:38:20;28.20;27.40
48515;DHT22;34309;47.260;2.796;2023-06-10T08:40:56;28.20;27.50
48515;DHT22;34309;47.260;2.796;2023-06-10T08:43:36;28.20;27.50
48515;DHT22;34309;47.260;2.796;2023-06-10T08:46:14;28.20;27.50
48515;DHT22;34309;47.260;2.796;2023-06-10T08:48:49;28.20;27.50
48515;DHT22;34309;47.260;2.796;2023-06-10T08:51:30;28.20;27.50
48515;DHT22;34309;47.260;2.796;2023-06-10T08:54:10;28.20;27.70
48515;DHT22;34309;47.260;2.796;2023-06-10T08:56:49;28.20;27.60
48515;DHT22;34309;47.260;2.796;2023-06-10T08:59:18;28.20;27.50
48515;DHT22;34309;47.260;2.796;2023-06-10T09:01:54;28.20;27.50
48515;DHT22;34309;47.260;2.796;2023-06-10T09:04:28;28.20;27.60
48515;DHT22;34309;47.260;2.796;2023-06-10T09:07:04;28.20;27.60
48515;DHT22;34309;47.260;2.796;2023-06-10T09:09:39;28.20;27.60
48515;DHT22;34309;47.260;2.796;2023-06-10T09:12:13;28.20;27.70
48515;DHT22;34309;47.260;2.796;2023-06-10T09:14:48;28.20;27.70
48515;DHT22;34309;47.260;2.796;2023-06-10T09:17:22;28.20;27.70
48515;DHT22;34309;47.260;2.796;2023-06-10T09:19:56;28.20;27.80
48515;DHT22;34309;47.260;2.796;2023-06-10T09:22:31;28.20;27.70
48515;DHT22;34309;47.260;2.796;2023-06-10T09:25:07;28.20;27.60
48515;DHT22;34309;47.260;2.796;2023-06-10T09:27:45;28.20;27.70
48515;DHT22;34309;47.260;2.796;2023-06-10T09:30:27;28.20;27.60
48515;DHT22;34309;47.260;2.796;2023-06-10T09:33:03;28.20;27.60
48515;DHT22;34309;47.260;2.796;2023-06-10T09:35:48;28.20;27.60
48515;DHT22;34309;47.260;2.796;2023-06-10T09:38:23;28.20;27.60
48515;DHT22;34309;47.260;2.796;2023-06-10T09:40:57;28.20;27.60
48515;DHT22;34309;47.260;2.796;2023-06-10T09:43:41;28.20;27.70
48515;DHT22;34309;47.260;2.796;2023-06-10T09:46:16;28.20;27.80
48515;DHT22;34309;47.260;2.796;2023-06-10T09:48:50;28.20;27.80
48515;DHT22;34309;47.260;2.796;2023-06-10T09:51:24;28.20;27.70
48515;DHT22;34309;47.260;2.796;2023-06-10T09:53:59;28.20;27.70
48515;DHT22;34309;47.260;2.796;2023-06-10T09:56:35;28.20;27.70
48515;DHT22;34309;47.260;2.796;2023-06-10T09:59:09;28.20;27.70
48515;DHT22;34309;47.260;2.796;2023-06-10T10:01:43;28.20;27.70
48515;DHT22;34309;47.260;2.796;2023-06-10T10:04:23;28.10;27.80
48515;DHT22;34309;47.260;2.796;2023-06-10T10:06:57;28.20;27.70
48515;DHT22;34309;47.260;2.796;2023-06-10T10:09:33;28.20;27.70
48515;DHT22;34309;47.260;2.796;2023-06-10T10:12:09;28.20;27.90
48515;DHT22;34309;47.260;2.796;2023-06-10T10:14:47;28.20;27.80
48515;DHT22;34309;47.260;2.796;2023-06-10T10:17:21;28.20;27.80
48515;DHT22;34309;47.260;2.796;2023-06-10T10:20:01;28.20;27.80
48515;DHT22;34309;47.260;2.796;2023-06-10T10:22:38;28.20;27.80
48515;DHT22;34309;47.260;2.796;2023-06-10T10:25:16;28.20;27.70
48515;DHT22;34309;47.260;2.796;2023-06-10T10:27:57;28.20;27.80
48515;DHT22;34309;47.260;2.796;2023-06-10T10:30:39;28.20;27.80
48515;DHT22;34309;47.260;2.796;2023-06-10T10:33:16;28.20;27.70
48515;DHT22;34309;47.260;2.796;2023-06-10T10:35:51;28.20;27.80
48515;DHT22;34309;47.260;2.796;2023-06-10T10:38:25;28.20;27.60
48515;DHT22;34309;47.260;2.796;2023-06-10T10:41:01;28.10;27.70
48515;DHT22;34309;47.260;2.796;2023-06-10T10:43:35;28.20;27.80
48515;DHT22;34309;47.260;2.796;2023-06-10T10:46:12;28.20;27.80
48515;DHT22;34309;47.260;2.796;2023-06-10T10:48:52;28.20;27.90
48515;DHT22;34309;47.260;2.796;2023-06-10T10:51:26;28.10;27.80
48515;DHT22;34309;47.260;2.796;2023-06-10T10:54:11;28.10;27.80
48515;DHT22;34309;47.260;2.796;2023-06-10T10:57:12;28.10;27.80
48515;DHT22;34309;47.260;2.796;2023-06-10T10:59:52;28.20;27.90
48515;DHT22;34309;47.260;2.796;2023-06-10T11:02:45;28.20;27.80
48515;DHT22;34309;47.260;2.796;2023-06-10T11:05:32;28.10;27.90
48515;DHT22;34309;47.260;2.796;2023-06-10T11:08:09;28.20;28.10
48515;DHT22;34309;47.260;2.796;2023-06-10T11:10:51;28.10;28.00
48515;DHT22;34309;47.260;2.796;2023-06-10T11:13:28;28.10;27.90
48515;DHT22;34309;47.260;2.796;2023-06-10T11:15:57;28.20;28.10
48515;DHT22;34309;47.260;2.796;2023-06-10T11:18:38;28.20;28.00
48515;DHT22;34309;47.260;2.796;2023-06-10T11:21:12;28.20;28.00
48515;DHT22;34309;47.260;2.796;2023-06-10T11:23:46;28.10;27.90
48515;DHT22;34309;47.260;2.796;2023-06-10T11:26:30;28.10;28.00
48515;DHT22;34309;47.260;2.796;2023-06-10T11:29:09;28.10;28.10
48515;DHT22;34309;47.260;2.796;2023-06-10T11:31:45;28.10;28.00
48515;DHT22;34309;47.260;2.796;2023-06-10T11:34:23;28.10;28.00
48515;DHT22;34309;47.260;2.796;2023-06-10T11:36:59;28.10;28.00
48515;DHT22;34309;47.260;2.796;2023-06-10T11:39:33;28.10;28.10
48515;DHT22;34309;47.260;2.796;2023-06-10T11:42:07;28.20;28.20
48515;DHT22;34309;47.260;2.796;2023-06-10T11:44:49;28.10;28.20
48515;DHT22;34309;47.260;2.796;2023-06-10T11:47:23;28.10;28.10
48515;DHT22;34309;47.260;2.796;2023-06-10T11:50:01;28.10;28.10
48515;DHT22;34309;47.260;2.796;2023-06-10T11:52:35;28.10;28.10
48515;DHT22;34309;47.260;2.796;2023-06-10T11:55:13;28.10;28.00
48515;DHT22;34309;47.260;2.796;2023-06-10T11:57:47;28.10;28.30
48515;DHT22;34309;47.260;2.796;2023-06-10T12:00:30;28.10;28.90
48515;DHT22;34309;47.260;2.796;2023-06-10T12:03:04;28.10;28.30
48515;DHT22;34309;47.260;2.796;2023-06-10T12:05:33;28.10;28.30
48515;DHT22;34309;47.260;2.796;2023-06-10T12:08:10;28.10;28.30
48515;DHT22;34309;47.260;2.796;2023-06-10T12:10:44;28.10;28.30
48515;DHT22;34309;47.260;2.796;2023-06-10T12:13:18;28.10;28.20
48515;DHT22;34309;47.260;2.796;2023-06-10T12:15:55;28.10;28.20
48515;DHT22;34309;47.260;2.796;2023-06-10T12:18:39;28.10;28.20
48515;DHT22;34309;47.260;2.796;2023-06-10T12:21:17;28.10;28.30
48515;DHT22;34309;47.260;2.796;2023-06-10T12:24:01;28.10;28.30
48515;DHT22;34309;47.260;2.796;2023-06-10T12:26:39;28.10;28.80
48515;DHT22;34309;47.260;2.796;2023-06-10T12:29:21;28.10;28.30
48515;DHT22;34309;47.260;2.796;2023-06-10T12:31:59;28.10;28.80
48515;DHT22;34309;47.260;2.796;2023-06-10T12:34:36;28.10;28.30
48515;DHT22;34309;47.260;2.796;2023-06-10T12:37:11;28.20;28.50
48515;DHT22;34309;47.260;2.796;2023-06-10T12:39:51;28.10;28.30
48515;DHT22;34309;47.260;2.796;2023-06-10T12:42:26;28.10;28.30
48515;DHT22;34309;47.260;2.796;2023-06-10T12:45:01;28.10;28.20
48515;DHT22;34309;47.260;2.796;2023-06-10T12:47:37;28.10;28.20
48515;DHT22;34309;47.260;2.796;2023-06-10T12:50:11;28.10;28.30
48515;DHT22;34309;47.260;2.796;2023-06-10T12:52:45;28.10;28.20
48515;DHT22;34309;47.260;2.796;2023-06-10T12:55:20;28.10;28.20
48515;DHT22;34309;47.260;2.796;2023-06-10T12:57:53;28.10;28.20
48515;DHT22;34309;47.260;2.796;2023-06-10T13:00:28;28.10;28.30
48515;DHT22;34309;47.260;2.796;2023-06-10T13:03:04;28.10;28.30
48515;DHT22;34309;47.260;2.796;2023-06-10T13:05:39;28.10;28.20
48515;DHT22;34309;47.260;2.796;2023-06-10T13:08:12;28.10;28.30
48515;DHT22;34309;47.260;2.796;2023-06-10T13:10:46;28.10;28.30
48515;DHT22;34309;47.260;2.796;2023-06-10T13:13:21;28.20;28.40
48515;DHT22;34309;47.260;2.796;2023-06-10T13:15:54;28.10;28.40
48515;DHT22;34309;47.260;2.796;2023-06-10T13:18:29;28.10;28.40
48515;DHT22;34309;47.260;2.796;2023-06-10T13:21:09;28.10;28.50
48515;DHT22;34309;47.260;2.796;2023-06-10T13:23:44;28.10;28.40
48515;DHT22;34309;47.260;2.796;2023-06-10T13:26:19;28.10;28.40
48515;DHT22;34309;47.260;2.796;2023-06-10T13:28:53;28.10;28.40
48515;DHT22;34309;47.260;2.796;2023-06-10T13:31:27;28.10;28.40
48515;DHT22;34309;47.260;2.796;2023-06-10T13:34:02;28.10;29.10
48515;DHT22;34309;47.260;2.796;2023-06-10T13:36:36;28.10;28.40
48515;DHT22;34309;47.260;2.796;2023-06-10T13:39:10;28.10;28.50
48515;DHT22;34309;47.260;2.796;2023-06-10T13:41:47;28.10;28.40
48515;DHT22;34309;47.260;2.796;2023-06-10T13:44:21;28.10;28.60
48515;DHT22;34309;47.260;2.796;2023-06-10T13:46:55;28.10;28.60
48515;DHT22;34309;47.260;2.796;2023-06-10T13:49:30;28.10;28.50
48515;DHT22;34309;47.260;2.796;2023-06-10T13:52:04;28.10;28.60
48515;DHT22;34309;47.260;2.796;2023-06-10T13:54:40;28.10;28.60
48515;DHT22;34309;47.260;2.796;2023-06-10T13:57:14;28.10;28.80
48515;DHT22;34309;47.260;2.796;2023-06-10T13:59:48;28.10;28.80
48515;DHT22;34309;47.260;2.796;2023-06-10T14:02:21;28.10;28.70
48515;DHT22;34309;47.260;2.796;2023-06-10T14:04:52;28.10;28.80
48515;DHT22;34309;47.260;2.796;2023-06-10T14:07:25;28.10;28.70
48515;DHT22;34309;47.260;2.796;2023-06-10T14:09:59;28.10;28.80
48515;DHT22;34309;47.260;2.796;2023-06-10T14:12:34;28.10;28.70
48515;DHT22;34309;47.260;2.796;2023-06-10T14:15:08;28.10;28.90
48515;DHT22;34309;47.260;2.796;2023-06-10T14:17:42;28.10;28.80
48515;DHT22;34309;47.260;2.796;2023-06-10T14:20:18;28.10;28.70
48515;DHT22;34309;47.260;2.796;2023-06-10T14:22:52;28.10;28.70
48515;DHT22;34309;47.260;2.796;2023-06-10T14:25:26;28.10;28.80
48515;DHT22;34309;47.260;2.796;2023-06-10T14:28:00;28.10;28.80
48515;DHT22;34309;47.260;2.796;2023-06-10T14:30:34;28.10;28.90
48515;DHT22;34309;47.260;2.796;2023-06-10T14:33:08;28.10;28.80
48515;DHT22;34309;47.260;2.796;2023-06-10T14:35:44;28.10;28.70
48515;DHT22;34309;47.260;2.796;2023-06-10T14:38:17;28.10;28.80
48515;DHT22;34309;47.260;2.796;2023-06-10T14:40:51;28.10;28.90
48515;DHT22;34309;47.260;2.796;2023-06-10T14:43:25;28.10;29.00
48515;DHT22;34309;47.260;2.796;2023-06-10T14:45:59;28.10;29.00
48515;DHT22;34309;47.260;2.796;2023-06-10T14:48:33;28.10;29.00
48515;DHT22;34309;47.260;2.796;2023-06-10T14:51:08;28.10;29.00
48515;DHT22;34309;47.260;2.796;2023-06-10T14:53:42;28.10;29.00
48515;DHT22;34309;47.260;2.796;2023-06-10T14:56:16;28.10;29.00
48515;DHT22;34309;47.260;2.796;2023-06-10T14:58:50;28.10;29.00
48515;DHT22;34309;47.260;2.796;2023-06-10T15:01:23;28.20;29.20
48515;DHT22;34309;47.260;2.796;2023-06-10T15:03:57;28.10;29.10
48515;DHT22;34309;47.260;2.796;2023-06-10T15:06:32;28.10;29.10
48515;DHT22;34309;47.260;2.796;2023-06-10T15:09:07;28.10;29.20
48515;DHT22;34309;47.260;2.796;2023-06-10T15:11:41;28.10;29.20
48515;DHT22;34309;47.260;2.796;2023-06-10T15:14:15;28.10;29.10
48515;DHT22;34309;47.260;2.796;2023-06-10T15:16:48;28.10;29.20
48515;DHT22;34309;47.260;2.796;2023-06-10T15:19:25;28.10;29.30
48515;DHT22;34309;47.260;2.796;2023-06-10T15:22:00;28.10;29.20
48515;DHT22;34309;47.260;2.796;2023-06-10T15:24:34;28.10;29.30
48515;DHT22;34309;47.260;2.796;2023-06-10T15:27:08;28.20;29.20
48515;DHT22;34309;47.260;2.796;2023-06-10T15:29:42;28.10;29.10
48515;DHT22;34309;47.260;2.796;2023-06-10T15:32:16;28.10;29.20
48515;DHT22;34309;47.260;2.796;2023-06-10T15:34:50;28.10;29.10
48515;DHT22;34309;47.260;2.796;2023-06-10T15:37:27;28.10;29.20
48515;DHT22;34309;47.260;2.796;2023-06-10T15:40:00;28.10;29.20
48515;DHT22;34309;47.260;2.796;2023-06-10T15:42:34;28.10;29.30
48515;DHT22;34309;47.260;2.796;2023-06-10T15:45:09;28.10;29.20
48515;DHT22;34309;47.260;2.796;2023-06-10T15:47:43;28.10;29.00
48515;DHT22;34309;47.260;2.796;2023-06-10T15:50:17;28.20;29.10
48515;DHT22;34309;47.260;2.796;2023-06-10T15:52:52;28.20;29.20
48515;DHT22;34309;47.260;2.796;2023-06-10T15:55:26;28.20;29.30
48515;DHT22;34309;47.260;2.796;2023-06-10T15:57:56;28.20;29.30
48515;DHT22;34309;47.260;2.796;2023-06-10T16:00:32;28.20;29.20
48515;DHT22;34309;47.260;2.796;2023-06-10T16:03:01;28.20;29.30
48515;DHT22;34309;47.260;2.796;2023-06-10T16:05:35;28.20;29.20
48515;DHT22;34309;47.260;2.796;2023-06-10T16:08:10;28.20;29.20
48515;DHT22;34309;47.260;2.796;2023-06-10T16:10:44;28.10;29.30
48515;DHT22;34309;47.260;2.796;2023-06-10T16:13:18;28.20;29.30
48515;DHT22;34309;47.260;2.796;2023-06-10T16:15:53;28.20;29.40
48515;DHT22;34309;47.260;2.796;2023-06-10T16:18:27;28.20;29.30